Time;durP1;ratioP1;P1;durP2;ratioP2;P2;SDS_P1;SDS_P2;PMS_P1;PMS_P2;Temp;Humidity;BMP_temperature;BMP_pressure;BME280_temperature;BME280_humidity;BME280_pressure;Samples;Min_cycle;Max_cycle;Signal;HPM_P1;HPM_P2
2021/01/23 00:03:28;;;;;;;21.00;7.67;;;;;;;5.17;83.29;96933.28;249448;1155;23056;-71
2021/01/23 00:08:30;;;;;;;17.80;8.30;;;;;;;5.15;83.33;96936.23;249327;1148;23106;-74
2021/01/23 00:13:32;;;;;;;25.45;9.00;;;;;;;5.27;84.02;96925.09;249431;1155;22978;-75
2021/01/23 00:18:34;;;;;;;19.70;7.33;;;;;;;5.44;84.09;96930.56;249439;1148;23396;-74
2021/01/23 00:23:36;;;;;;;23.37;9.10;;;;;;;5.60;84.94;96920.38;249447;1148;22942;-72
2021/01/23 00:28:38;;;;;;;22.10;8.70;;;;;;;5.66;84.12;96921.81;249704;1148;22942;-74
2021/01/23 00:33:40;;;;;;;23.63;7.63;;;;;;;5.62;83.48;96918.22;249633;1155;22967;-74
2021/01/23 00:38:44;;;;;;;14.25;6.10;;;;;;;5.58;83.25;96917.24;249695;1148;23067;-71
2021/01/23 00:43:46;;;;;;;28.87;10.57;;;;;;;5.45;82.62;96912.75;249625;1148;24602;-71
2021/01/23 00:48:49;;;;;;;21.63;8.70;;;;;;;5.26;82.64;96905.73;249786;1148;23112;-73
2021/01/23 00:53:51;;;;;;;19.57;8.53;;;;;;;5.04;82.38;96903.03;249693;1151;23122;-74
2021/01/23 00:58:53;;;;;;;14.43;6.83;;;;;;;4.92;82.99;96895.56;249645;1148;23043;-74
2021/01/23 01:03:56;;;;;;;13.17;6.40;;;;;;;5.00;83.59;96886.91;249684;1155;23028;-74
2021/01/23 01:08:58;;;;;;;14.70;7.57;;;;;;;5.08;83.67;96880.12;249508;1148;22975;-71
2021/01/23 01:14:00;;;;;;;18.87;8.30;;;;;;;5.09;83.75;96879.02;249572;1148;23101;-73
2021/01/23 01:19:03;;;;;;;16.13;8.83;;;;;;;5.12;83.35;96876.56;249645;1148;22970;-73
2021/01/23 01:24:05;;;;;;;19.30;8.70;;;;;;;5.08;83.16;96870.28;249664;1153;23055;-72
2021/01/23 01:29:07;;;;;;;26.55;10.70;;;;;;;4.99;82.77;96864.09;249399;1148;23033;-73
2021/01/23 01:34:10;;;;;;;20.53;10.07;;;;;;;4.91;82.59;96860.30;249398;1148;22887;-73
2021/01/23 01:39:12;;;;;;;25.93;12.43;;;;;;;4.82;82.78;96843.50;249333;1148;22973;-72
2021/01/23 01:44:16;;;;;;;17.85;9.05;;;;;;;4.75;83.08;96845.78;249381;1148;22952;-74
2021/01/23 01:49:19;;;;;;;19.50;10.10;;;;;;;4.70;83.45;96844.02;249461;1151;22921;-73
2021/01/23 01:54:23;;;;;;;25.97;10.20;;;;;;;4.71;83.24;96836.84;249771;1148;22955;-72
2021/01/23 01:59:25;;;;;;;21.60;10.73;;;;;;;4.78;83.39;96835.37;249577;1148;22961;-73
2021/01/23 02:04:32;;;;;;;19.37;10.60;;;;;;;4.85;83.26;96836.82;249562;1148;22925;-74
2021/01/23 02:09:43;;;;;;;21.80;11.57;;;;;;;4.84;83.11;96832.59;249632;1148;22944;-73
2021/01/23 02:15:02;;;;;;;20.70;11.90;;;;;;;4.79;82.95;96813.04;249895;1152;22941;-74
2021/01/23 02:20:56;;;;;;;28.00;12.40;;;;;;;4.73;83.47;96805.48;249668;1148;22972;-74
2021/01/23 02:26:23;;;;;;;21.23;10.47;;;;;;;4.68;83.32;96805.61;249129;1148;23342;-73
2021/01/23 02:31:28;;;;;;;26.33;12.07;;;;;;;4.66;83.63;96803.27;249602;1148;22911;-71
2021/01/23 02:36:31;;;;;;;27.10;12.40;;;;;;;4.58;82.37;96799.43;249662;1148;26153;-74
2021/01/23 02:41:34;;;;;;;25.25;12.60;;;;;;;4.43;82.97;96797.88;249343;1148;22966;-73
2021/01/23 02:46:36;;;;;;;25.23;11.27;;;;;;;4.32;82.87;96793.08;249555;1156;22951;-74
2021/01/23 02:51:45;;;;;;;20.90;11.35;;;;;;;4.23;82.88;96803.59;249787;1148;26117;-71
2021/01/23 02:56:49;;;;;;;20.03;11.53;;;;;;;4.19;83.30;96800.73;249565;1148;22992;-75
2021/01/23 03:01:53;;;;;;;19.27;9.93;;;;;;;4.16;83.30;96798.69;249597;1148;23152;-73
2021/01/23 03:06:56;;;;;;;21.83;9.70;;;;;;;4.18;83.64;96782.48;249908;1152;22947;-73
2021/01/23 03:11:59;;;;;;;26.30;11.03;;;;;;;4.25;83.79;96775.72;249671;1148;22969;-74
2021/01/23 03:17:02;;;;;;;19.23;9.17;;;;;;;4.28;83.46;96772.47;249517;1150;22970;-74
2021/01/23 03:22:04;;;;;;;16.70;8.60;;;;;;;4.25;83.35;96767.77;249700;1148;23046;-75
2021/01/23 03:27:07;;;;;;;19.03;8.57;;;;;;;4.19;83.65;96758.34;249475;1156;23006;-75
2021/01/23 03:32:09;;;;;;;15.70;8.33;;;;;;;4.15;83.49;96762.66;249603;1148;26044;-74
2021/01/23 03:37:11;;;;;;;16.43;8.93;;;;;;;4.09;83.56;96742.65;249569;1156;22966;-73
2021/01/23 03:42:14;;;;;;;20.37;9.07;;;;;;;4.06;83.67;96746.67;249603;1148;23090;-74
2021/01/23 03:47:16;;;;;;;13.40;6.97;;;;;;;4.07;84.04;96750.09;249570;1148;22975;-74
2021/01/23 03:52:19;;;;;;;13.47;6.87;;;;;;;4.05;83.80;96729.20;249496;1148;23013;-74
2021/01/23 03:57:21;;;;;;;13.35;7.25;;;;;;;4.02;83.37;96723.72;249618;1148;22960;-74
2021/01/23 04:02:23;;;;;;;19.93;9.67;;;;;;;3.94;83.77;96725.98;249602;1148;22942;-73
2021/01/23 04:07:28;;;;;;;17.90;9.80;;;;;;;3.92;83.65;96730.77;249657;1155;22971;-71
2021/01/23 04:12:32;;;;;;;21.13;10.07;;;;;;;3.92;84.24;96725.48;249659;1148;23103;-75
2021/01/23 04:17:34;;;;;;;18.80;9.80;;;;;;;3.98;84.08;96718.21;249709;1155;22938;-71
2021/01/23 04:22:36;;;;;;;14.60;8.85;;;;;;;4.02;84.38;96721.84;249355;1148;22950;-73
2021/01/23 04:27:40;;;;;;;20.53;9.47;;;;;;;4.13;84.57;96718.98;249531;1148;23123;-73
2021/01/23 04:32:42;;;;;;;9.07;4.37;;;;;;;4.54;86.12;96704.88;249708;1148;23044;-74
2021/01/23 04:37:45;;;;;;;8.80;4.00;;;;;;;5.29;87.40;96699.92;249578;1156;22975;-75
2021/01/23 04:42:48;;;;;;;6.60;3.17;;;;;;;5.93;86.50;96688.93;249770;1148;22966;-74
2021/01/23 04:47:54;;;;;;;11.50;3.90;;;;;;;6.33;85.80;96680.11;249544;1151;22970;-74
2021/01/23 04:52:57;;;;;;;9.47;4.10;;;;;;;6.57;84.72;96658.36;249707;1148;22972;-72
2021/01/23 04:57:59;;;;;;;7.30;3.37;;;;;;;6.75;84.32;96666.34;249830;1153;22967;-73
2021/01/23 05:03:04;;;;;;;7.60;3.23;;;;;;;6.87;83.62;96671.81;249599;1148;22978;-74
2021/01/23 05:08:11;;;;;;;7.50;2.87;;;;;;;6.91;82.92;96670.09;249544;1148;22957;-73
2021/01/23 05:13:16;;;;;;;10.47;4.10;;;;;;;6.99;83.21;96673.82;249395;1148;22964;-73
2021/01/23 05:18:20;;;;;;;7.83;3.90;;;;;;;7.05;83.13;96674.44;249967;1152;22988;-73
2021/01/23 05:23:25;;;;;;;8.43;4.30;;;;;;;7.08;82.48;96676.46;249645;1148;22957;-74
2021/01/23 05:28:27;;;;;;;5.27;3.23;;;;;;;7.16;82.48;96676.46;249645;1147;22972;-73
2021/01/23 05:33:36;;;;;;;6.90;3.30;;;;;;;7.32;82.52;96659.97;249642;1148;23179;-71
2021/01/23 05:38:39;;;;;;;8.10;3.40;;;;;;;7.49;82.86;96653.80;249493;1148;23050;-74
2021/01/23 05:43:44;;;;;;;4.03;2.33;;;;;;;7.68;82.56;96635.53;249399;1148;22965;-72
2021/01/23 05:48:49;;;;;;;6.57;2.73;;;;;;;7.86;81.99;96649.55;249670;1151;24671;-73
2021/01/23 05:53:52;;;;;;;6.63;2.57;;;;;;;7.99;81.41;96650.41;249641;1148;23032;-73
2021/01/23 05:58:54;;;;;;;6.63;2.63;;;;;;;8.00;81.02;96649.31;249792;1148;22961;-74
2021/01/23 06:03:58;;;;;;;5.20;3.00;;;;;;;8.02;80.83;96655.09;249598;1148;22953;-74
2021/01/23 06:09:00;;;;;;;6.20;3.20;;;;;;;7.99;80.76;96647.73;249846;1153;22960;-74
2021/01/23 06:14:03;;;;;;;3.70;1.73;;;;;;;7.99;80.85;96642.41;249787;1148;22945;-73
2021/01/23 06:19:05;;;;;;;3.53;1.10;;;;;;;8.07;81.06;96635.44;249598;1148;22953;-72
2021/01/23 06:24:09;;;;;;;1.53;1.00;;;;;;;8.22;80.76;96626.09;249673;1148;28658;-75
2021/01/23 06:29:36;;;;;;;1.70;1.00;;;;;;;8.35;80.92;96627.73;249828;1148;22942;-73
2021/01/23 06:34:50;;;;;;;1.53;1.07;;;;;;;8.47;80.73;96627.03;249683;1150;25921;-74
2021/01/23 06:40:14;;;;;;;0.97;0.83;;;;;;;8.59;80.41;96636.98;249549;1151;22970;-73
2021/01/23 06:45:20;;;;;;;1.43;0.83;;;;;;;8.72;80.02;96635.91;249429;1148;26366;-73
2021/01/23 06:50:35;;;;;;;2.57;1.60;;;;;;;8.83;79.79;96632.86;249509;1148;22991;-74
2021/01/23 06:55:52;;;;;;;1.80;0.97;;;;;;;8.92;79.43;96636.20;249627;1148;23064;-73
2021/01/23 07:00:58;;;;;;;3.73;0.97;;;;;;;8.99;79.25;96636.44;249760;1148;24593;-72
2021/01/23 07:06:01;;;;;;;1.23;0.77;;;;;;;9.05;78.49;96629.00;249632;1148;22957;-72
2021/01/23 07:11:18;;;;;;;2.55;1.00;;;;;;;9.11;78.63;96637.58;249565;1148;22967;-73
2021/01/23 07:16:20;;;;;;;2.33;1.00;;;;;;;9.15;78.31;96643.82;249313;1148;22947;-71
2021/01/23 07:21:24;;;;;;;1.95;1.20;;;;;;;9.16;78.19;96640.05;249611;1155;23004;-73
2021/01/23 07:26:28;;;;;;;1.77;1.40;;;;;;;9.18;77.46;96624.48;249497;1148;22939;-75
2021/01/23 07:31:32;;;;;;;4.23;1.07;;;;;;;9.21;77.75;96621.14;249444;1150;22941;-72
2021/01/23 07:36:43;;;;;;;2.07;1.07;;;;;;;9.22;77.18;96620.81;249643;1148;26399;-73
2021/01/23 07:41:50;;;;;;;;;;;;;;;9.27;76.87;96627.81;249905;1148;26245;-70
2021/01/23 07:46:53;;;;;;;2.43;1.13;;;;;;;9.32;77.01;96616.16;250126;1147;21576;-72
2021/01/23 07:52:13;;;;;;;3.30;1.20;;;;;;;9.37;76.42;96616.72;250407;1148;22939;-72
2021/01/23 07:57:16;;;;;;;2.50;1.50;;;;;;;9.46;76.42;96605.11;250207;1147;22974;-72
2021/01/23 08:02:18;;;;;;;3.47;1.40;;;;;;;9.53;76.19;96606.13;249867;1148;22942;-74
2021/01/23 08:07:31;;;;;;;3.57;1.40;;;;;;;9.58;76.01;96591.75;250228;1147;23028;-72
2021/01/23 08:12:34;;;;;;;2.37;1.43;;;;;;;9.63;75.51;96599.56;250041;1147;23076;-75
2021/01/23 08:17:38;;;;;;;4.33;1.80;;;;;;;9.66;75.60;96590.86;250093;1148;22998;-75
2021/01/23 08:22:56;;;;;;;3.43;1.30;;;;;;;9.68;75.22;96596.67;249856;1148;22964;-74
2021/01/23 08:27:58;;;;;;;3.67;1.43;;;;;;;9.71;74.85;96598.66;249874;1148;23746;-73
2021/01/23 08:33:11;;;;;;;4.50;1.75;;;;;;;9.72;74.59;96589.54;250298;1148;22939;-73
2021/01/23 08:38:13;;;;;;;3.30;1.50;;;;;;;9.71;74.64;96604.02;250012;1148;22894;-75
2021/01/23 08:43:15;;;;;;;4.20;1.83;;;;;;;9.72;73.99;96602.91;250091;1148;22966;-74
2021/01/23 08:48:17;;;;;;;3.25;1.65;;;;;;;9.76;74.15;96609.14;251787;1148;23435;-73
2021/01/23 08:53:20;;;;;;;2.17;1.03;;;;;;;9.85;74.09;96609.02;249982;1147;22942;-75
2021/01/23 08:58:22;;;;;;;1.17;0.90;;;;;;;9.90;73.50;96595.39;249852;1147;22939;-75
2021/01/23 09:03:24;;;;;;;3.45;1.40;;;;;;;9.91;73.70;96601.54;249820;1147;22935;-74
2021/01/23 09:08:26;;;;;;;3.70;0.93;;;;;;;9.96;73.85;96603.20;249812;1147;22943;-75
2021/01/23 09:13:29;;;;;;;3.07;1.10;;;;;;;10.03;73.37;96595.38;249725;1148;23095;-74
2021/01/23 09:18:32;;;;;;;1.90;1.20;;;;;;;10.10;73.15;96606.28;249653;1148;23344;-71
2021/01/23 09:23:34;;;;;;;2.97;1.30;;;;;;;10.16;73.20;96612.20;250269;1148;25979;-74
2021/01/23 09:28:36;;;;;;;1.27;0.83;;;;;;;10.19;73.04;96617.64;249721;1148;23026;-72
2021/01/23 09:33:39;;;;;;;3.23;1.40;;;;;;;10.23;72.85;96599.80;249714;1148;23047;-76
2021/01/23 09:38:41;;;;;;;2.13;1.30;;;;;;;10.31;72.36;96605.34;249814;1148;22923;-73
2021/01/23 09:43:43;;;;;;;2.07;1.10;;;;;;;10.43;72.70;96587.37;250178;1148;22970;-73
2021/01/23 09:48:45;;;;;;;2.83;1.07;;;;;;;10.53;72.73;96580.75;249746;1148;22937;-74
2021/01/23 09:53:47;;;;;;;2.70;1.03;;;;;;;10.63;72.62;96587.52;249650;1148;22962;-73
2021/01/23 09:58:49;;;;;;;2.05;1.10;;;;;;;10.76;72.51;96582.91;249669;1148;22977;-73
2021/01/23 10:03:51;;;;;;;2.97;1.10;;;;;;;10.87;71.53;96596.55;249664;1148;23073;-72
2021/01/23 10:08:54;;;;;;;1.70;0.70;;;;;;;11.00;71.31;96608.00;249715;1148;22967;-73
2021/01/23 10:13:56;;;;;;;1.13;0.80;;;;;;;11.16;70.87;96632.89;257045;1147;22799;-73
2021/01/23 10:18:59;;;;;;;2.47;1.33;;;;;;;11.25;71.40;96630.06;251354;1148;22974;-74
2021/01/23 10:24:01;;;;;;;1.13;0.70;;;;;;;11.20;70.71;96627.62;249827;1148;23396;-73
2021/01/23 10:29:05;;;;;;;3.23;1.60;;;;;;;11.03;70.81;96640.22;249963;1148;22947;-74
2021/01/23 10:34:07;;;;;;;4.20;1.60;;;;;;;10.83;70.66;96651.92;249769;1148;22960;-74
2021/01/23 10:39:10;;;;;;;3.67;1.60;;;;;;;10.67;71.28;96639.27;249833;1148;22945;-73
2021/01/23 10:44:12;;;;;;;4.63;1.87;;;;;;;10.53;71.25;96639.65;250058;1148;22960;-70
2021/01/23 10:49:14;;;;;;;3.80;1.67;;;;;;;10.44;71.24;96647.83;249774;1148;22974;-72
2021/01/23 10:54:16;;;;;;;5.23;1.83;;;;;;;10.38;71.36;96656.42;249769;1148;22978;-74
2021/01/23 10:59:18;;;;;;;4.17;1.97;;;;;;;10.35;71.93;96663.25;249829;1148;22938;-73
2021/01/23 11:04:20;;;;;;;3.80;2.25;;;;;;;10.28;71.81;96661.11;249834;1148;22922;-73
2021/01/23 11:09:23;;;;;;;6.20;2.47;;;;;;;10.23;71.90;96655.22;249920;1148;23030;-73
2021/01/23 11:14:25;;;;;;;4.30;1.97;;;;;;;10.11;71.00;96664.03;249909;1148;22967;-73
2021/01/23 11:19:27;;;;;;;6.05;3.00;;;;;;;9.98;71.09;96646.45;249824;1148;23803;-70
2021/01/23 11:24:30;;;;;;;5.95;2.20;;;;;;;9.90;71.25;96640.09;249804;1148;22939;-73
2021/01/23 11:29:34;;;;;;;4.23;1.90;;;;;;;9.91;71.19;96634.41;249980;1148;23401;-74
2021/01/23 11:34:36;;;;;;;7.40;2.37;;;;;;;9.93;71.14;96629.52;250130;1148;23177;-73
2021/01/23 11:39:39;;;;;;;5.85;2.10;;;;;;;9.92;70.87;96629.85;249955;1148;22967;-72
2021/01/23 11:44:41;;;;;;;3.73;1.03;;;;;;;9.94;68.00;96636.40;250433;1148;24749;-73
2021/01/23 11:49:43;;;;;;;3.35;1.30;;;;;;;9.90;67.33;96629.39;250316;1148;22912;-72
2021/01/23 11:54:45;;;;;;;2.75;1.45;;;;;;;9.81;68.26;96610.80;250075;1148;22905;-72
2021/01/23 11:59:47;;;;;;;5.33;2.63;;;;;;;9.72;68.80;96629.64;250320;1147;23029;-72
2021/01/23 12:04:50;;;;;;;5.55;2.50;;;;;;;9.70;69.74;96623.84;250819;1147;24600;-74
2021/01/23 12:09:52;;;;;;;5.50;3.27;;;;;;;9.69;69.60;96606.23;250446;1147;23003;-73
2021/01/23 12:14:54;;;;;;;7.20;3.40;;;;;;;9.70;70.27;96613.14;249567;1148;23062;-73
2021/01/23 12:19:56;;;;;;;8.17;3.30;;;;;;;9.67;70.56;96611.14;249577;1148;23419;-74
2021/01/23 12:24:58;;;;;;;4.70;2.90;;;;;;;9.61;69.65;96614.37;249710;1148;23019;-73
2021/01/23 12:30:02;;;;;;;7.20;3.25;;;;;;;9.50;69.82;96614.03;250126;1145;22957;-72
2021/01/23 12:35:08;;;;;;;5.43;2.83;;;;;;;9.38;70.37;96593.44;249711;1149;22919;-73
2021/01/23 12:40:11;;;;;;;6.77;3.60;;;;;;;9.37;70.77;96591.87;249738;1155;22949;-73
2021/01/23 12:45:15;;;;;;;7.50;3.20;;;;;;;9.31;70.79;96602.00;249732;1150;22954;-73
2021/01/23 12:50:17;;;;;;;7.20;3.15;;;;;;;9.16;70.50;96613.33;249660;1156;23395;-73
2021/01/23 12:55:19;;;;;;;8.00;3.80;;;;;;;9.00;71.18;96627.33;249489;1148;23046;-72
2021/01/23 13:00:21;;;;;;;7.20;4.30;;;;;;;8.83;71.95;96641.63;249585;1155;23382;-73
2021/01/23 13:05:24;;;;;;;8.63;4.83;;;;;;;8.66;72.28;96639.11;249414;1151;23020;-73
2021/01/23 13:10:26;;;;;;;7.77;5.03;;;;;;;8.42;72.67;96648.53;249390;1148;22954;-73
2021/01/23 13:15:29;;;;;;;7.30;4.17;;;;;;;8.20;72.91;96646.98;249370;1151;23439;-74
2021/01/23 13:20:31;;;;;;;6.90;4.00;;;;;;;8.03;72.89;96624.66;249500;1149;22945;-70
2021/01/23 13:25:34;;;;;;;7.20;4.50;;;;;;;7.95;72.88;96622.83;249583;1148;23020;-71
2021/01/23 13:30:36;;;;;;;6.63;4.30;;;;;;;7.90;73.28;96635.56;249493;1148;23034;-73
2021/01/23 13:35:38;;;;;;;7.87;5.20;;;;;;;7.84;73.40;96640.30;249914;1151;22980;-71
2021/01/23 13:40:40;;;;;;;7.00;4.47;;;;;;;7.82;72.65;96650.49;249411;1156;23068;-72
2021/01/23 13:45:42;;;;;;;9.57;4.97;;;;;;;7.67;72.36;96663.27;249356;1148;23051;-72
2021/01/23 13:50:46;;;;;;;8.10;5.50;;;;;;;7.53;72.34;96668.81;249468;1148;23082;-71
2021/01/23 13:55:48;;;;;;;8.23;5.50;;;;;;;7.41;72.33;96665.27;249260;1155;23426;-72
2021/01/23 14:00:51;;;;;;;7.87;4.50;;;;;;;7.27;72.01;96657.47;250015;1148;22943;-70
2021/01/23 14:05:54;;;;;;;6.83;4.90;;;;;;;7.14;71.91;96664.56;249558;1149;22973;-73
2021/01/23 14:10:55;;;;;;;8.60;4.97;;;;;;;7.05;72.01;96658.46;249592;1156;22944;-72
2021/01/23 14:15:57;;;;;;;8.40;4.70;;;;;;;6.93;71.31;96651.91;249403;1148;22942;-73
2021/01/23 14:21:00;;;;;;;7.80;4.90;;;;;;;6.81;72.31;96654.43;249568;1155;22977;-72
2021/01/23 14:26:02;;;;;;;10.83;6.40;;;;;;;6.72;72.40;96653.67;249451;1148;24529;-72
2021/01/23 14:31:05;;;;;;;11.23;6.67;;;;;;;6.67;71.71;96674.02;249516;1148;23764;-72
2021/01/23 14:36:07;;;;;;;10.30;5.60;;;;;;;6.64;71.70;96695.14;249724;1148;22995;-73
2021/01/23 14:41:09;;;;;;;8.70;4.80;;;;;;;6.58;71.84;96694.52;250123;1153;22991;-70
2021/01/23 14:46:11;;;;;;;10.00;5.10;;;;;;;6.48;71.01;96724.09;249347;1148;22956;-73
2021/01/23 14:51:14;;;;;;;7.00;4.23;;;;;;;6.38;71.74;96714.54;249523;1155;23073;-70
2021/01/23 14:56:16;;;;;;;9.20;5.40;;;;;;;6.25;71.94;96720.77;249638;1148;22914;-72
2021/01/23 15:01:18;;;;;;;8.95;4.95;;;;;;;6.10;71.79;96709.48;249689;1151;22949;-71
2021/01/23 15:06:21;;;;;;;10.10;5.90;;;;;;;5.99;72.24;96738.21;249905;1148;22974;-71
2021/01/23 15:11:23;;;;;;;10.07;5.43;;;;;;;5.90;72.41;96758.62;249376;1150;22970;-73
2021/01/23 15:16:26;;;;;;;10.47;6.07;;;;;;;5.82;72.51;96751.42;249597;1148;22942;-72
2021/01/23 15:21:28;;;;;;;8.87;5.30;;;;;;;5.79;73.10;96757.33;249561;1150;23213;-70
2021/01/23 15:26:30;;;;;;;9.63;5.07;;;;;;;5.72;73.12;96741.84;249550;1148;23240;-73
2021/01/23 15:31:33;;;;;;;11.30;5.90;;;;;;;5.67;73.04;96747.28;249509;1148;23036;-73
2021/01/23 15:36:35;;;;;;;10.63;5.17;;;;;;;5.60;72.82;96761.00;249609;1148;22987;-73
2021/01/23 15:41:39;;;;;;;9.47;5.10;;;;;;;5.56;73.22;96770.66;249415;1155;22977;-72
2021/01/23 15:46:41;;;;;;;9.10;4.70;;;;;;;5.49;73.30;96776.40;250027;1148;23116;-72
2021/01/23 15:51:43;;;;;;;10.63;4.70;;;;;;;5.42;73.06;96776.05;249864;1147;22962;-72
2021/01/23 15:56:45;;;;;;;8.70;4.30;;;;;;;5.35;72.48;96764.30;249643;1148;22978;-72
2021/01/23 16:01:47;;;;;;;8.53;4.17;;;;;;;5.30;73.65;96763.34;249701;1151;23025;-71
2021/01/23 16:06:49;;;;;;;10.17;4.53;;;;;;;5.21;73.21;96774.98;249308;1148;26111;-73
2021/01/23 16:11:51;;;;;;;9.43;4.87;;;;;;;5.18;73.96;96765.75;249568;1148;22937;-73
2021/01/23 16:16:54;;;;;;;11.43;5.20;;;;;;;5.09;73.77;96776.31;249474;1148;23399;-73
2021/01/23 16:21:56;;;;;;;8.47;4.50;;;;;;;5.06;74.13;96774.23;249489;1148;27254;-73
2021/01/23 16:26:58;;;;;;;9.53;4.97;;;;;;;5.04;73.88;96765.03;249625;1148;23351;-70
2021/01/23 16:32:01;;;;;;;7.83;4.37;;;;;;;4.99;74.37;96789.80;249581;1148;23000;-74
2021/01/23 16:37:03;;;;;;;10.90;5.40;;;;;;;4.96;74.70;96785.88;249661;1155;23034;-73
2021/01/23 16:42:10;;;;;;;11.50;5.43;;;;;;;4.93;73.90;96806.93;249655;1153;22939;-72
2021/01/23 16:47:12;;;;;;;9.87;5.50;;;;;;;4.90;74.18;96812.84;249714;1148;22942;-72
2021/01/23 16:52:15;;;;;;;11.67;5.27;;;;;;;4.90;74.31;96812.84;249514;1148;23093;-72
2021/01/23 16:57:18;;;;;;;9.27;4.77;;;;;;;4.85;74.71;96797.80;249650;1148;22942;-73
2021/01/23 17:02:21;;;;;;;11.53;6.43;;;;;;;4.83;74.75;96799.98;249501;1148;26369;-72
2021/01/23 17:07:25;;;;;;;11.50;5.67;;;;;;;4.82;74.87;96795.75;249726;1148;22965;-72
2021/01/23 17:12:27;;;;;;;11.33;6.10;;;;;;;4.80;74.56;96795.28;249633;1148;22942;-72
2021/01/23 17:17:29;;;;;;;15.10;6.85;;;;;;;4.77;74.67;96803.81;249475;1148;26609;-71
2021/01/23 17:22:31;;;;;;;12.90;6.80;;;;;;;4.74;75.33;96807.87;249447;1151;22945;-73
2021/01/23 17:27:33;;;;;;;16.85;7.90;;;;;;;4.76;75.14;96787.12;249555;1148;23099;-72
2021/01/23 17:32:35;;;;;;;17.40;8.00;;;;;;;4.74;75.13;96799.10;249601;1156;22966;-73
2021/01/23 17:37:38;;;;;;;20.83;9.63;;;;;;;4.70;75.00;96804.23;249490;1148;24541;-73
2021/01/23 17:42:40;;;;;;;16.67;9.30;;;;;;;4.71;75.51;96797.05;249655;1150;22939;-73
2021/01/23 17:47:42;;;;;;;21.23;9.87;;;;;;;4.68;75.45;96800.31;249582;1148;25954;-73
2021/01/23 17:52:44;;;;;;;16.43;9.23;;;;;;;4.67;75.54;96798.73;249632;1156;22966;-74
2021/01/23 17:57:47;;;;;;;19.00;8.40;;;;;;;4.63;75.63;96809.94;249433;1148;26079;-71
2021/01/23 18:02:49;;;;;;;16.60;8.60;;;;;;;4.63;75.22;96801.98;249452;1148;22973;-73
2021/01/23 18:07:51;;;;;;;17.43;8.60;;;;;;;4.61;75.86;96808.66;249540;1148;25826;-71
2021/01/23 18:12:56;;;;;;;15.53;7.80;;;;;;;4.60;75.88;96809.73;249732;1156;23402;-73
2021/01/23 18:17:58;;;;;;;16.85;9.95;;;;;;;4.61;75.58;96814.74;249638;1148;22954;-72
2021/01/23 18:23:00;;;;;;;14.73;8.63;;;;;;;4.60;75.41;96807.89;249548;1156;25844;-72
2021/01/23 18:28:03;;;;;;;12.85;6.75;;;;;;;4.59;75.50;96816.92;249632;1148;23101;-74
2021/01/23 18:33:05;;;;;;;13.30;6.77;;;;;;;4.59;75.49;96827.53;249576;1148;22977;-71
2021/01/23 18:38:07;;;;;;;13.73;7.40;;;;;;;4.58;75.42;96825.95;249394;1155;22953;-72
2021/01/23 18:43:10;;;;;;;16.37;8.63;;;;;;;4.57;75.38;96828.91;249521;1148;23004;-73
2021/01/23 18:48:12;;;;;;;21.87;10.77;;;;;;;4.55;75.70;96823.13;249684;1155;23028;-74
2021/01/23 18:53:15;;;;;;;24.87;12.50;;;;;;;4.53;75.36;96812.02;249792;1148;23018;-73
2021/01/23 18:58:17;;;;;;;23.90;11.93;;;;;;;4.55;75.64;96810.64;249725;1148;23024;-73
2021/01/23 19:03:22;;;;;;;21.05;11.45;;;;;;;4.56;75.47;96806.91;249411;1148;23097;-73
2021/01/23 19:08:24;;;;;;;23.47;11.87;;;;;;;4.54;75.74;96806.41;249327;1148;25980;-74
2021/01/23 19:13:27;;;;;;;25.40;12.43;;;;;;;4.52;75.69;96816.54;249318;1148;22950;-73
2021/01/23 19:18:29;;;;;;;19.53;10.83;;;;;;;4.50;76.37;96817.91;249470;1151;22958;-73
2021/01/23 19:23:32;;;;;;;22.10;11.37;;;;;;;4.47;76.11;96826.47;249402;1151;22935;-73
2021/01/23 19:28:34;;;;;;;19.90;9.40;;;;;;;4.44;76.48;96820.66;250038;1151;22939;-74
2021/01/23 19:33:36;;;;;;;18.83;10.37;;;;;;;4.39;75.83;96825.28;249828;1150;22909;-73
2021/01/23 19:38:38;;;;;;;18.03;9.30;;;;;;;4.32;76.15;96820.36;249390;1148;26416;-74
2021/01/23 19:43:41;;;;;;;24.20;12.00;;;;;;;4.36;76.86;96818.70;249577;1155;22966;-75
2021/01/23 19:48:43;;;;;;;25.07;12.47;;;;;;;4.35;76.89;96803.09;249533;1156;23047;-73
2021/01/23 19:53:46;;;;;;;30.00;13.65;;;;;;;4.33;76.90;96797.31;249515;1148;27681;-73
2021/01/23 19:58:49;;;;;;;25.40;13.67;;;;;;;4.28;76.85;96806.13;249457;1148;23033;-73
2021/01/23 20:03:51;;;;;;;21.60;12.43;;;;;;;4.31;77.17;96816.16;249675;1150;23066;-73
2021/01/23 20:08:53;;;;;;;20.20;10.87;;;;;;;4.31;76.89;96815.36;249600;1148;23041;-73
2021/01/23 20:13:55;;;;;;;15.07;8.37;;;;;;;4.21;77.14;96809.20;249514;1151;22974;-73
2021/01/23 20:18:57;;;;;;;12.00;7.13;;;;;;;4.09;77.26;96811.55;249608;1151;23060;-72
2021/01/23 20:24:00;;;;;;;12.30;6.90;;;;;;;3.97;77.46;96817.31;249602;1148;22977;-72
2021/01/23 20:29:03;;;;;;;8.33;4.47;;;;;;;3.67;77.48;96823.95;249517;1151;22949;-70
2021/01/23 20:34:07;;;;;;;8.63;3.90;;;;;;;3.33;78.09;96831.10;249580;1148;22939;-72
2021/01/23 20:39:10;;;;;;;6.17;4.13;;;;;;;3.07;78.63;96849.98;249707;1148;22960;-72
2021/01/23 20:44:13;;;;;;;5.93;3.83;;;;;;;2.87;79.35;96851.06;249840;1150;24577;-72
2021/01/23 20:49:15;;;;;;;10.90;4.77;;;;;;;2.71;79.22;96865.55;249424;1148;22972;-71
2021/01/23 20:54:18;;;;;;;8.77;3.97;;;;;;;2.64;79.57;96887.03;249618;1151;23009;-72
2021/01/23 20:59:20;;;;;;;7.37;4.57;;;;;;;2.52;79.32;96899.89;249459;1148;22909;-72
2021/01/23 21:04:22;;;;;;;7.75;4.15;;;;;;;2.28;79.25;96881.36;249361;1148;22948;-73
2021/01/23 21:09:25;;;;;;;9.40;4.73;;;;;;;2.01;79.63;96878.19;249991;1152;22938;-72
2021/01/23 21:14:27;;;;;;;7.77;4.43;;;;;;;1.76;79.47;96879.20;249451;1148;22945;-72
2021/01/23 21:19:29;;;;;;;10.55;5.40;;;;;;;1.60;80.23;96883.83;249453;1150;22938;-72
2021/01/23 21:24:32;;;;;;;13.47;6.37;;;;;;;1.48;80.34;96878.92;249373;1148;22963;-73
2021/01/23 21:29:34;;;;;;;9.77;6.40;;;;;;;1.46;81.14;96877.62;249555;1149;22949;-72
2021/01/23 21:34:36;;;;;;;12.40;6.75;;;;;;;1.42;81.00;96887.14;249368;1148;23701;-72
2021/01/23 21:39:39;;;;;;;9.10;5.47;;;;;;;1.32;80.56;96886.14;249643;1148;26414;-72
2021/01/23 21:44:42;;;;;;;15.03;9.13;;;;;;;1.19;81.55;96884.91;249788;1148;22971;-70
2021/01/23 21:49:44;;;;;;;16.87;9.60;;;;;;;1.15;81.69;96875.19;249518;1155;24745;-72
2021/01/23 21:54:46;;;;;;;16.20;10.10;;;;;;;1.21;81.91;96879.36;249331;1153;22968;-72
2021/01/23 21:59:48;;;;;;;16.43;9.53;;;;;;;1.27;82.02;96866.92;249338;1151;22939;-70
2021/01/23 22:04:50;;;;;;;14.83;9.27;;;;;;;1.29;81.99;96855.04;249553;1148;22942;-72
2021/01/23 22:09:53;;;;;;;14.87;8.73;;;;;;;1.35;81.69;96846.02;249485;1155;22992;-69
2021/01/23 22:14:55;;;;;;;14.57;8.83;;;;;;;1.43;82.81;96843.84;249638;1148;22966;-72
2021/01/23 22:19:57;;;;;;;13.75;8.15;;;;;;;1.48;82.01;96852.53;249341;1148;26475;-72
2021/01/23 22:24:59;;;;;;;17.40;10.20;;;;;;;1.53;82.72;96847.20;249492;1148;23106;-69
2021/01/23 22:30:04;;;;;;;15.80;8.87;;;;;;;1.48;82.28;96843.81;249608;1151;22958;-69
2021/01/23 22:35:07;;;;;;;13.80;8.45;;;;;;;1.47;82.37;96843.03;249511;1148;23044;-70
2021/01/23 22:40:11;;;;;;;13.53;8.57;;;;;;;1.56;82.92;96827.39;249588;1156;23007;-71
2021/01/23 22:45:13;;;;;;;10.65;6.65;;;;;;;1.61;82.57;96816.80;249533;1155;22946;-72
2021/01/23 22:50:15;;;;;;;18.15;10.15;;;;;;;1.58;82.10;96812.08;249615;1147;22964;-71
2021/01/23 22:55:17;;;;;;;17.63;10.23;;;;;;;1.53;82.58;96818.16;249766;1148;22991;-69
2021/01/23 23:00:29;;;;;;;20.93;11.67;;;;;;;1.50;81.94;96787.06;249608;1148;22936;-72
2021/01/23 23:05:42;;;;;;;21.03;12.17;;;;;;;1.57;82.53;96796.49;249377;1148;23065;-72
2021/01/23 23:10:45;;;;;;;23.47;11.83;;;;;;;1.59;82.92;96791.73;249334;1148;24584;-68
2021/01/23 23:15:47;;;;;;;27.30;14.77;;;;;;;1.58;82.94;96790.97;249484;1148;22950;-71
2021/01/23 23:20:49;;;;;;;24.77;13.57;;;;;;;1.61;83.21;96785.13;249660;1148;23056;-71
2021/01/23 23:25:52;;;;;;;36.87;15.17;;;;;;;1.57;83.13;96786.74;249680;1148;22938;-70
2021/01/23 23:30:56;;;;;;;32.37;16.70;;;;;;;1.54;82.62;96788.08;249868;1152;22946;-71
2021/01/23 23:35:59;;;;;;;66.93;27.47;;;;;;;1.59;83.42;96789.10;249283;1148;22962;-71